sensor_id;sensor_type;location;lat;lon;timestamp;temperature;humidity
13802;DHT22;6972;51.518;6.918;2023-05-19T00:02:15;19.90;99.90
13802;DHT22;6972;51.518;6.918;2023-05-19T00:04:43;19.90;99.90
13802;DHT22;6972;51.518;6.918;2023-05-19T00:07:10;19.90;99.90
13802;DHT22;6972;51.518;6.918;2023-05-19T00:09:36;19.90;99.90
13802;DHT22;6972;51.518;6.918;2023-05-19T00:12:02;19.90;99.90
13802;DHT22;6972;51.518;6.918;2023-05-19T00:14:28;19.90;99.90
13802;DHT22;6972;51.518;6.918;2023-05-19T00:16:54;19.90;99.90
13802;DHT22;6972;51.518;6.918;2023-05-19T00:19:22;19.90;99.90
13802;DHT22;6972;51.518;6.918;2023-05-19T00:21:48;19.90;99.90
13802;DHT22;6972;51.518;6.918;2023-05-19T00:24:14;19.90;99.90
13802;DHT22;6972;51.518;6.918;2023-05-19T00:26:39;19.90;99.90
13802;DHT22;6972;51.518;6.918;2023-05-19T00:29:05;19.90;99.90
13802;DHT22;6972;51.518;6.918;2023-05-19T00:31:31;19.80;99.90
13802;DHT22;6972;51.518;6.918;2023-05-19T00:33:58;19.80;99.90
13802;DHT22;6972;51.518;6.918;2023-05-19T00:36:24;19.90;99.90
13802;DHT22;6972;51.518;6.918;2023-05-19T00:38:49;19.90;99.90
13802;DHT22;6972;51.518;6.918;2023-05-19T00:41:16;19.80;99.90
13802;DHT22;6972;51.518;6.918;2023-05-19T00:43:41;19.90;99.90
13802;DHT22;6972;51.518;6.918;2023-05-19T00:46:07;19.80;99.90
13802;DHT22;6972;51.518;6.918;2023-05-19T00:48:33;19.80;99.90
13802;DHT22;6972;51.518;6.918;2023-05-19T00:50:59;19.80;99.90
13802;DHT22;6972;51.518;6.918;2023-05-19T00:53:32;19.80;99.90
13802;DHT22;6972;51.518;6.918;2023-05-19T00:55:59;19.80;99.90
13802;DHT22;6972;51.518;6.918;2023-05-19T00:58:28;19.80;99.90
13802;DHT22;6972;51.518;6.918;2023-05-19T01:00:58;19.80;99.90
13802;DHT22;6972;51.518;6.918;2023-05-19T01:03:31;18.80;99.90
13802;DHT22;6972;51.518;6.918;2023-05-19T01:05:59;19.80;99.90
13802;DHT22;6972;51.518;6.918;2023-05-19T01:08:36;19.80;99.90
13802;DHT22;6972;51.518;6.918;2023-05-19T01:11:06;19.80;99.90
13802;DHT22;6972;51.518;6.918;2023-05-19T01:13:33;19.80;99.90
13802;DHT22;6972;51.518;6.918;2023-05-19T01:25:01;19.80;99.90
13802;DHT22;6972;51.518;6.918;2023-05-19T01:27:59;19.80;99.90
13802;DHT22;6972;51.518;6.918;2023-05-19T01:30:36;19.70;99.90
13802;DHT22;6972;51.518;6.918;2023-05-19T01:33:08;19.70;99.90
13802;DHT22;6972;51.518;6.918;2023-05-19T01:35:36;18.90;99.90
13802;DHT22;6972;51.518;6.918;2023-05-19T01:38:04;19.70;99.90
13802;DHT22;6972;51.518;6.918;2023-05-19T01:40:32;19.70;99.90
13802;DHT22;6972;51.518;6.918;2023-05-19T01:42:59;19.70;99.90
13802;DHT22;6972;51.518;6.918;2023-05-19T01:45:31;19.70;99.90
13802;DHT22;6972;51.518;6.918;2023-05-19T01:47:59;19.70;99.90
13802;DHT22;6972;51.518;6.918;2023-05-19T01:50:28;19.70;99.90
13802;DHT22;6972;51.518;6.918;2023-05-19T01:52:54;19.70;99.90
13802;DHT22;6972;51.518;6.918;2023-05-19T01:55:20;19.70;99.90
13802;DHT22;6972;51.518;6.918;2023-05-19T02:06:22;19.70;99.90
13802;DHT22;6972;51.518;6.918;2023-05-19T02:09:06;19.70;99.90
13802;DHT22;6972;51.518;6.918;2023-05-19T02:17:19;19.70;99.90
13802;DHT22;6972;51.518;6.918;2023-05-19T02:19:46;19.70;99.90
13802;DHT22;6972;51.518;6.918;2023-05-19T02:22:12;19.70;99.90
13802;DHT22;6972;51.518;6.918;2023-05-19T02:24:38;19.70;99.90
13802;DHT22;6972;51.518;6.918;2023-05-19T02:27:08;19.60;99.90
13802;DHT22;6972;51.518;6.918;2023-05-19T02:29:34;19.60;99.90
13802;DHT22;6972;51.518;6.918;2023-05-19T02:32:00;19.60;99.90
13802;DHT22;6972;51.518;6.918;2023-05-19T02:34:26;19.60;99.90
13802;DHT22;6972;51.518;6.918;2023-05-19T02:36:51;19.60;99.90
13802;DHT22;6972;51.518;6.918;2023-05-19T02:39:18;19.60;99.90
13802;DHT22;6972;51.518;6.918;2023-05-19T02:41:43;19.60;99.90
13802;DHT22;6972;51.518;6.918;2023-05-19T02:44:09;19.60;99.90
13802;DHT22;6972;51.518;6.918;2023-05-19T02:46:34;19.60;99.90
13802;DHT22;6972;51.518;6.918;2023-05-19T02:49:00;19.60;99.90
13802;DHT22;6972;51.518;6.918;2023-05-19T02:51:26;19.60;99.90
13802;DHT22;6972;51.518;6.918;2023-05-19T02:53:51;19.60;99.90
13802;DHT22;6972;51.518;6.918;2023-05-19T02:56:17;19.60;99.90
13802;DHT22;6972;51.518;6.918;2023-05-19T02:58:43;19.60;99.90
13802;DHT22;6972;51.518;6.918;2023-05-19T03:01:08;19.60;99.90
13802;DHT22;6972;51.518;6.918;2023-05-19T03:03:35;19.60;99.90
13802;DHT22;6972;51.518;6.918;2023-05-19T03:06:01;19.60;99.90
13802;DHT22;6972;51.518;6.918;2023-05-19T03:08:27;19.60;99.90
13802;DHT22;6972;51.518;6.918;2023-05-19T03:10:53;19.60;99.90
13802;DHT22;6972;51.518;6.918;2023-05-19T03:13:18;19.60;99.90
13802;DHT22;6972;51.518;6.918;2023-05-19T03:15:44;19.60;99.90
13802;DHT22;6972;51.518;6.918;2023-05-19T03:18:10;19.60;99.90
13802;DHT22;6972;51.518;6.918;2023-05-19T03:20:37;19.60;99.90
13802;DHT22;6972;51.518;6.918;2023-05-19T03:23:03;19.60;99.90
13802;DHT22;6972;51.518;6.918;2023-05-19T03:25:28;19.60;99.90
13802;DHT22;6972;51.518;6.918;2023-05-19T03:27:54;19.60;99.90
13802;DHT22;6972;51.518;6.918;2023-05-19T03:30:20;19.60;99.90
13802;DHT22;6972;51.518;6.918;2023-05-19T03:32:46;19.60;99.90
13802;DHT22;6972;51.518;6.918;2023-05-19T03:35:12;19.60;99.90
13802;DHT22;6972;51.518;6.918;2023-05-19T03:37:37;19.60;99.90
13802;DHT22;6972;51.518;6.918;2023-05-19T03:40:03;19.60;99.90
13802;DHT22;6972;51.518;6.918;2023-05-19T03:42:30;19.60;99.90
13802;DHT22;6972;51.518;6.918;2023-05-19T03:44:55;19.50;99.90
13802;DHT22;6972;51.518;6.918;2023-05-19T03:47:21;19.60;99.90
13802;DHT22;6972;51.518;6.918;2023-05-19T03:49:47;19.60;99.90
13802;DHT22;6972;51.518;6.918;2023-05-19T03:52:12;19.50;99.90
13802;DHT22;6972;51.518;6.918;2023-05-19T03:54:38;19.50;99.90
13802;DHT22;6972;51.518;6.918;2023-05-19T03:57:04;20.90;99.90
13802;DHT22;6972;51.518;6.918;2023-05-19T03:59:30;19.50;99.90
13802;DHT22;6972;51.518;6.918;2023-05-19T04:01:56;19.50;99.90
13802;DHT22;6972;51.518;6.918;2023-05-19T04:04:22;19.50;99.90
13802;DHT22;6972;51.518;6.918;2023-05-19T04:06:48;19.60;99.90
13802;DHT22;6972;51.518;6.918;2023-05-19T04:09:15;19.50;99.90
13802;DHT22;6972;51.518;6.918;2023-05-19T04:11:41;19.50;99.90
13802;DHT22;6972;51.518;6.918;2023-05-19T04:14:07;19.50;99.90
13802;DHT22;6972;51.518;6.918;2023-05-19T04:16:33;19.50;99.90
13802;DHT22;6972;51.518;6.918;2023-05-19T04:18:59;19.50;99.90
13802;DHT22;6972;51.518;6.918;2023-05-19T04:21:28;19.50;99.90
13802;DHT22;6972;51.518;6.918;2023-05-19T04:23:53;19.50;99.90
13802;DHT22;6972;51.518;6.918;2023-05-19T04:26:19;19.50;99.90
13802;DHT22;6972;51.518;6.918;2023-05-19T04:28:47;19.50;99.90
13802;DHT22;6972;51.518;6.918;2023-05-19T04:31:15;19.50;99.90
13802;DHT22;6972;51.518;6.918;2023-05-19T04:33:41;19.50;99.90
13802;DHT22;6972;51.518;6.918;2023-05-19T04:36:07;19.50;99.90
13802;DHT22;6972;51.518;6.918;2023-05-19T04:38:35;19.50;99.90
13802;DHT22;6972;51.518;6.918;2023-05-19T04:41:04;19.50;99.90
13802;DHT22;6972;51.518;6.918;2023-05-19T04:43:30;19.50;99.90
13802;DHT22;6972;51.518;6.918;2023-05-19T04:45:56;19.50;99.90
13802;DHT22;6972;51.518;6.918;2023-05-19T04:48:22;19.50;99.90
13802;DHT22;6972;51.518;6.918;2023-05-19T04:50:48;17.80;99.90
13802;DHT22;6972;51.518;6.918;2023-05-19T04:53:16;19.50;99.90
13802;DHT22;6972;51.518;6.918;2023-05-19T04:55:42;19.50;99.90
13802;DHT22;6972;51.518;6.918;2023-05-19T04:58:08;19.50;99.90
13802;DHT22;6972;51.518;6.918;2023-05-19T05:00:33;19.50;99.90
13802;DHT22;6972;51.518;6.918;2023-05-19T05:03:02;19.50;99.90
13802;DHT22;6972;51.518;6.918;2023-05-19T05:05:32;19.50;99.90
13802;DHT22;6972;51.518;6.918;2023-05-19T05:07:57;19.50;99.90
13802;DHT22;6972;51.518;6.918;2023-05-19T05:10:23;19.50;99.90
13802;DHT22;6972;51.518;6.918;2023-05-19T05:12:49;19.50;99.90
13802;DHT22;6972;51.518;6.918;2023-05-19T05:15:15;19.50;99.90
13802;DHT22;6972;51.518;6.918;2023-05-19T05:17:41;19.50;99.90
13802;DHT22;6972;51.518;6.918;2023-05-19T05:20:08;19.50;99.90
13802;DHT22;6972;51.518;6.918;2023-05-19T05:22:34;19.50;99.90
13802;DHT22;6972;51.518;6.918;2023-05-19T05:25:01;19.50;99.90
13802;DHT22;6972;51.518;6.918;2023-05-19T05:27:27;19.50;99.90
13802;DHT22;6972;51.518;6.918;2023-05-19T05:29:54;19.50;99.90
13802;DHT22;6972;51.518;6.918;2023-05-19T05:32:19;19.50;99.90
13802;DHT22;6972;51.518;6.918;2023-05-19T05:34:45;19.50;99.90
13802;DHT22;6972;51.518;6.918;2023-05-19T05:37:11;19.50;99.90
13802;DHT22;6972;51.518;6.918;2023-05-19T05:39:38;19.50;99.90
13802;DHT22;6972;51.518;6.918;2023-05-19T05:42:04;19.50;99.90
13802;DHT22;6972;51.518;6.918;2023-05-19T05:44:30;19.50;99.90
13802;DHT22;6972;51.518;6.918;2023-05-19T05:46:56;19.50;99.90
13802;DHT22;6972;51.518;6.918;2023-05-19T05:49:22;19.50;99.90
13802;DHT22;6972;51.518;6.918;2023-05-19T05:51:48;19.50;99.90
13802;DHT22;6972;51.518;6.918;2023-05-19T05:54:14;19.50;99.90
13802;DHT22;6972;51.518;6.918;2023-05-19T05:56:41;19.50;99.90
13802;DHT22;6972;51.518;6.918;2023-05-19T05:59:07;19.50;99.90
13802;DHT22;6972;51.518;6.918;2023-05-19T06:01:33;19.50;99.90
13802;DHT22;6972;51.518;6.918;2023-05-19T06:03:59;19.50;99.90
13802;DHT22;6972;51.518;6.918;2023-05-19T06:06:28;19.50;99.90
13802;DHT22;6972;51.518;6.918;2023-05-19T06:08:54;19.50;99.90
13802;DHT22;6972;51.518;6.918;2023-05-19T06:11:19;19.50;99.90
13802;DHT22;6972;51.518;6.918;2023-05-19T06:13:45;19.50;99.90
13802;DHT22;6972;51.518;6.918;2023-05-19T06:16:11;19.50;99.90
13802;DHT22;6972;51.518;6.918;2023-05-19T06:18:36;19.50;99.90
13802;DHT22;6972;51.518;6.918;2023-05-19T06:21:02;19.60;99.90
13802;DHT22;6972;51.518;6.918;2023-05-19T06:23:29;19.60;99.90
13802;DHT22;6972;51.518;6.918;2023-05-19T06:25:55;19.60;99.90
13802;DHT22;6972;51.518;6.918;2023-05-19T06:28:21;19.60;99.90
13802;DHT22;6972;51.518;6.918;2023-05-19T06:30:46;19.60;99.90
13802;DHT22;6972;51.518;6.918;2023-05-19T06:33:12;19.60;99.90
13802;DHT22;6972;51.518;6.918;2023-05-19T06:35:38;19.60;99.90
13802;DHT22;6972;51.518;6.918;2023-05-19T06:38:03;19.60;99.90
13802;DHT22;6972;51.518;6.918;2023-05-19T06:40:29;19.60;99.90
13802;DHT22;6972;51.518;6.918;2023-05-19T06:42:54;19.60;99.90
13802;DHT22;6972;51.518;6.918;2023-05-19T06:45:20;19.70;99.90
13802;DHT22;6972;51.518;6.918;2023-05-19T06:47:47;19.60;99.90
13802;DHT22;6972;51.518;6.918;2023-05-19T06:50:13;19.60;99.90
13802;DHT22;6972;51.518;6.918;2023-05-19T06:52:39;19.60;99.90
13802;DHT22;6972;51.518;6.918;2023-05-19T06:55:05;19.60;99.90
13802;DHT22;6972;51.518;6.918;2023-05-19T06:57:31;19.60;99.90
13802;DHT22;6972;51.518;6.918;2023-05-19T06:59:56;19.50;99.90
13802;DHT22;6972;51.518;6.918;2023-05-19T07:02:22;19.40;99.90
13802;DHT22;6972;51.518;6.918;2023-05-19T07:04:48;19.30;99.90
13802;DHT22;6972;51.518;6.918;2023-05-19T07:07:15;19.10;99.90
13802;DHT22;6972;51.518;6.918;2023-05-19T07:09:41;19.00;99.90
13802;DHT22;6972;51.518;6.918;2023-05-19T07:12:06;19.00;99.90
13802;DHT22;6972;51.518;6.918;2023-05-19T07:14:32;19.00;99.90
13802;DHT22;6972;51.518;6.918;2023-05-19T07:16:58;18.90;99.90
13802;DHT22;6972;51.518;6.918;2023-05-19T07:19:23;18.90;99.90
13802;DHT22;6972;51.518;6.918;2023-05-19T07:21:49;18.80;99.90
13802;DHT22;6972;51.518;6.918;2023-05-19T07:24:15;18.70;99.90
13802;DHT22;6972;51.518;6.918;2023-05-19T07:26:40;17.50;99.90
13802;DHT22;6972;51.518;6.918;2023-05-19T07:29:07;18.60;99.90
13802;DHT22;6972;51.518;6.918;2023-05-19T07:31:33;18.50;99.90
13802;DHT22;6972;51.518;6.918;2023-05-19T07:33:58;18.50;99.90
13802;DHT22;6972;51.518;6.918;2023-05-19T07:36:24;18.40;99.90
13802;DHT22;6972;51.518;6.918;2023-05-19T07:38:49;18.40;99.90
13802;DHT22;6972;51.518;6.918;2023-05-19T07:41:15;18.30;99.90
13802;DHT22;6972;51.518;6.918;2023-05-19T07:43:41;18.30;99.90
13802;DHT22;6972;51.518;6.918;2023-05-19T07:46:07;18.30;99.90
13802;DHT22;6972;51.518;6.918;2023-05-19T07:48:32;18.30;99.90
13802;DHT22;6972;51.518;6.918;2023-05-19T07:50:58;18.30;99.90
13802;DHT22;6972;51.518;6.918;2023-05-19T07:53:24;18.30;99.90
13802;DHT22;6972;51.518;6.918;2023-05-19T07:55:50;18.30;99.90
13802;DHT22;6972;51.518;6.918;2023-05-19T07:58:15;18.20;99.90
13802;DHT22;6972;51.518;6.918;2023-05-19T08:00:41;18.20;99.90
13802;DHT22;6972;51.518;6.918;2023-05-19T08:03:08;18.30;99.90
13802;DHT22;6972;51.518;6.918;2023-05-19T08:05:34;18.30;99.90
13802;DHT22;6972;51.518;6.918;2023-05-19T08:08:01;18.30;99.90
13802;DHT22;6972;51.518;6.918;2023-05-19T08:10:27;18.30;99.90
13802;DHT22;6972;51.518;6.918;2023-05-19T08:12:53;18.40;99.90
13802;DHT22;6972;51.518;6.918;2023-05-19T08:15:19;18.40;99.90
13802;DHT22;6972;51.518;6.918;2023-05-19T08:17:45;18.50;99.90
13802;DHT22;6972;51.518;6.918;2023-05-19T08:20:10;18.50;99.90
13802;DHT22;6972;51.518;6.918;2023-05-19T08:22:37;18.60;99.90
13802;DHT22;6972;51.518;6.918;2023-05-19T08:25:03;18.60;99.90
13802;DHT22;6972;51.518;6.918;2023-05-19T08:27:30;18.60;99.90
13802;DHT22;6972;51.518;6.918;2023-05-19T08:29:55;18.60;99.90
13802;DHT22;6972;51.518;6.918;2023-05-19T08:32:22;18.60;99.90
13802;DHT22;6972;51.518;6.918;2023-05-19T08:34:47;18.60;99.90
13802;DHT22;6972;51.518;6.918;2023-05-19T08:37:13;18.70;99.90
13802;DHT22;6972;51.518;6.918;2023-05-19T08:39:39;18.70;99.90
13802;DHT22;6972;51.518;6.918;2023-05-19T08:42:05;18.70;99.90
13802;DHT22;6972;51.518;6.918;2023-05-19T08:44:32;18.80;99.90
13802;DHT22;6972;51.518;6.918;2023-05-19T08:47:02;18.80;99.90
13802;DHT22;6972;51.518;6.918;2023-05-19T08:49:32;18.90;99.90
13802;DHT22;6972;51.518;6.918;2023-05-19T08:54:39;19.10;99.90
13802;DHT22;6972;51.518;6.918;2023-05-19T08:57:06;19.10;99.90
13802;DHT22;6972;51.518;6.918;2023-05-19T08:59:32;19.20;99.90
13802;DHT22;6972;51.518;6.918;2023-05-19T09:01:59;19.20;99.90
13802;DHT22;6972;51.518;6.918;2023-05-19T09:04:28;19.30;99.90
13802;DHT22;6972;51.518;6.918;2023-05-19T09:06:54;19.40;99.90
13802;DHT22;6972;51.518;6.918;2023-05-19T09:09:19;19.30;99.90
13802;DHT22;6972;51.518;6.918;2023-05-19T09:11:45;19.40;99.90
13802;DHT22;6972;51.518;6.918;2023-05-19T09:14:11;19.40;99.90
13802;DHT22;6972;51.518;6.918;2023-05-19T09:16:37;19.50;99.90
13802;DHT22;6972;51.518;6.918;2023-05-19T09:19:03;19.50;99.90
13802;DHT22;6972;51.518;6.918;2023-05-19T09:21:29;19.50;99.90
13802;DHT22;6972;51.518;6.918;2023-05-19T09:23:56;19.50;99.90
13802;DHT22;6972;51.518;6.918;2023-05-19T09:26:23;19.60;99.90
13802;DHT22;6972;51.518;6.918;2023-05-19T09:28:49;19.60;99.90
13802;DHT22;6972;51.518;6.918;2023-05-19T09:31:15;19.50;99.90
13802;DHT22;6972;51.518;6.918;2023-05-19T09:33:41;19.50;99.90
13802;DHT22;6972;51.518;6.918;2023-05-19T09:36:08;19.50;99.90
13802;DHT22;6972;51.518;6.918;2023-05-19T09:38:35;19.50;99.90
13802;DHT22;6972;51.518;6.918;2023-05-19T09:41:02;19.50;99.90
13802;DHT22;6972;51.518;6.918;2023-05-19T09:43:29;19.60;99.90
13802;DHT22;6972;51.518;6.918;2023-05-19T09:45:59;19.60;99.90
13802;DHT22;6972;51.518;6.918;2023-05-19T09:48:28;19.50;99.90
13802;DHT22;6972;51.518;6.918;2023-05-19T09:50:54;19.50;99.90
13802;DHT22;6972;51.518;6.918;2023-05-19T09:53:21;19.40;99.90
13802;DHT22;6972;51.518;6.918;2023-05-19T09:55:47;19.50;99.90
13802;DHT22;6972;51.518;6.918;2023-05-19T09:58:16;19.50;99.90
13802;DHT22;6972;51.518;6.918;2023-05-19T10:00:43;19.60;99.90
13802;DHT22;6972;51.518;6.918;2023-05-19T10:03:10;19.60;99.90
13802;DHT22;6972;51.518;6.918;2023-05-19T10:05:36;19.60;99.90
13802;DHT22;6972;51.518;6.918;2023-05-19T10:08:03;19.70;99.90
13802;DHT22;6972;51.518;6.918;2023-05-19T10:10:32;19.70;99.90
13802;DHT22;6972;51.518;6.918;2023-05-19T10:12:58;19.70;99.90
13802;DHT22;6972;51.518;6.918;2023-05-19T10:15:28;19.80;99.90
13802;DHT22;6972;51.518;6.918;2023-05-19T10:17:55;19.80;99.90
13802;DHT22;6972;51.518;6.918;2023-05-19T10:20:21;19.80;99.90
13802;DHT22;6972;51.518;6.918;2023-05-19T10:22:47;19.80;99.90
13802;DHT22;6972;51.518;6.918;2023-05-19T10:25:13;19.80;99.90
13802;DHT22;6972;51.518;6.918;2023-05-19T10:28:12;19.80;99.90
13802;DHT22;6972;51.518;6.918;2023-05-19T10:30:40;19.80;99.90
13802;DHT22;6972;51.518;6.918;2023-05-19T10:33:11;19.80;99.90
13802;DHT22;6972;51.518;6.918;2023-05-19T10:36:13;19.80;99.90
13802;DHT22;6972;51.518;6.918;2023-05-19T10:38:52;19.80;99.90
13802;DHT22;6972;51.518;6.918;2023-05-19T10:41:46;19.80;99.90
13802;DHT22;6972;51.518;6.918;2023-05-19T10:47:26;19.90;99.90
13802;DHT22;6972;51.518;6.918;2023-05-19T10:49:55;19.90;99.90
13802;DHT22;6972;51.518;6.918;2023-05-19T10:52:22;19.90;99.90
13802;DHT22;6972;51.518;6.918;2023-05-19T10:54:50;19.90;99.90
13802;DHT22;6972;51.518;6.918;2023-05-19T10:57:20;20.00;99.90
13802;DHT22;6972;51.518;6.918;2023-05-19T10:59:49;20.00;99.90
13802;DHT22;6972;51.518;6.918;2023-05-19T11:02:53;20.00;99.90
13802;DHT22;6972;51.518;6.918;2023-05-19T11:05:35;20.00;99.90
13802;DHT22;6972;51.518;6.918;2023-05-19T11:08:01;20.10;99.90
13802;DHT22;6972;51.518;6.918;2023-05-19T11:10:29;20.10;99.90
13802;DHT22;6972;51.518;6.918;2023-05-19T11:12:58;20.10;99.90
13802;DHT22;6972;51.518;6.918;2023-05-19T11:15:26;20.20;99.90
13802;DHT22;6972;51.518;6.918;2023-05-19T11:17:52;20.20;99.90
13802;DHT22;6972;51.518;6.918;2023-05-19T11:20:28;20.20;99.90
13802;DHT22;6972;51.518;6.918;2023-05-19T11:23:06;20.20;99.90
13802;DHT22;6972;51.518;6.918;2023-05-19T11:26:00;20.20;99.90
13802;DHT22;6972;51.518;6.918;2023-05-19T11:28:26;20.20;99.90
13802;DHT22;6972;51.518;6.918;2023-05-19T11:30:56;20.20;99.90
13802;DHT22;6972;51.518;6.918;2023-05-19T11:33:24;20.30;99.90
13802;DHT22;6972;51.518;6.918;2023-05-19T11:35:53;20.30;99.90
13802;DHT22;6972;51.518;6.918;2023-05-19T11:38:19;20.30;99.90
13802;DHT22;6972;51.518;6.918;2023-05-19T11:40:47;20.30;99.90
13802;DHT22;6972;51.518;6.918;2023-05-19T11:43:14;20.30;99.90
13802;DHT22;6972;51.518;6.918;2023-05-19T11:45:41;20.30;99.90
13802;DHT22;6972;51.518;6.918;2023-05-19T11:48:10;20.30;99.90
13802;DHT22;6972;51.518;6.918;2023-05-19T11:50:36;20.30;99.90
13802;DHT22;6972;51.518;6.918;2023-05-19T11:53:04;20.30;99.90
13802;DHT22;6972;51.518;6.918;2023-05-19T11:55:30;20.30;99.90
13802;DHT22;6972;51.518;6.918;2023-05-19T11:58:00;20.30;99.90
13802;DHT22;6972;51.518;6.918;2023-05-19T12:00:27;20.30;99.90
13802;DHT22;6972;51.518;6.918;2023-05-19T12:02:53;20.30;99.90
13802;DHT22;6972;51.518;6.918;2023-05-19T12:05:23;20.30;99.90
13802;DHT22;6972;51.518;6.918;2023-05-19T12:07:50;20.30;99.90
13802;DHT22;6972;51.518;6.918;2023-05-19T12:10:21;20.30;99.90
13802;DHT22;6972;51.518;6.918;2023-05-19T12:12:47;20.30;99.90
13802;DHT22;6972;51.518;6.918;2023-05-19T12:15:18;20.30;99.90
13802;DHT22;6972;51.518;6.918;2023-05-19T12:17:47;20.20;99.90
13802;DHT22;6972;51.518;6.918;2023-05-19T12:20:13;20.20;99.90
13802;DHT22;6972;51.518;6.918;2023-05-19T12:22:39;20.10;99.90
13802;DHT22;6972;51.518;6.918;2023-05-19T12:25:05;20.10;99.90
13802;DHT22;6972;51.518;6.918;2023-05-19T12:27:34;20.20;99.90
13802;DHT22;6972;51.518;6.918;2023-05-19T12:30:02;20.20;99.90
13802;DHT22;6972;51.518;6.918;2023-05-19T12:32:28;20.10;99.90
13802;DHT22;6972;51.518;6.918;2023-05-19T12:34:57;20.20;99.90
13802;DHT22;6972;51.518;6.918;2023-05-19T12:37:28;20.20;99.90
13802;DHT22;6972;51.518;6.918;2023-05-19T12:39:58;20.20;99.90
13802;DHT22;6972;51.518;6.918;2023-05-19T12:42:26;20.20;99.90
13802;DHT22;6972;51.518;6.918;2023-05-19T12:44:56;20.20;99.90
13802;DHT22;6972;51.518;6.918;2023-05-19T12:47:27;20.20;99.90
13802;DHT22;6972;51.518;6.918;2023-05-19T12:50:07;20.20;99.90
13802;DHT22;6972;51.518;6.918;2023-05-19T12:52:40;20.20;99.90
13802;DHT22;6972;51.518;6.918;2023-05-19T12:55:07;20.20;99.90
13802;DHT22;6972;51.518;6.918;2023-05-19T12:57:34;20.20;99.90
13802;DHT22;6972;51.518;6.918;2023-05-19T13:00:13;20.20;99.90
13802;DHT22;6972;51.518;6.918;2023-05-19T13:03:02;20.20;99.90
13802;DHT22;6972;51.518;6.918;2023-05-19T13:05:33;20.20;99.90
13802;DHT22;6972;51.518;6.918;2023-05-19T13:10:34;20.20;99.90
13802;DHT22;6972;51.518;6.918;2023-05-19T13:13:03;20.20;99.90
13802;DHT22;6972;51.518;6.918;2023-05-19T13:15:30;20.60;99.90
13802;DHT22;6972;51.518;6.918;2023-05-19T13:17:59;20.20;99.90
13802;DHT22;6972;51.518;6.918;2023-05-19T13:20:26;20.20;99.90
13802;DHT22;6972;51.518;6.918;2023-05-19T13:22:51;20.20;99.90
13802;DHT22;6972;51.518;6.918;2023-05-19T13:25:18;20.20;99.90
13802;DHT22;6972;51.518;6.918;2023-05-19T13:27:44;17.60;99.90
13802;DHT22;6972;51.518;6.918;2023-05-19T13:30:10;20.20;99.90
13802;DHT22;6972;51.518;6.918;2023-05-19T13:32:36;20.20;99.90
13802;DHT22;6972;51.518;6.918;2023-05-19T13:35:02;20.20;99.90
13802;DHT22;6972;51.518;6.918;2023-05-19T13:37:28;20.20;99.90
13802;DHT22;6972;51.518;6.918;2023-05-19T13:39:54;20.20;99.90
13802;DHT22;6972;51.518;6.918;2023-05-19T13:42:20;22.70;99.90
13802;DHT22;6972;51.518;6.918;2023-05-19T13:44:46;20.20;99.90
13802;DHT22;6972;51.518;6.918;2023-05-19T13:47:11;20.30;99.90
13802;DHT22;6972;51.518;6.918;2023-05-19T13:49:38;20.20;99.90
13802;DHT22;6972;51.518;6.918;2023-05-19T13:52:04;20.30;99.90
13802;DHT22;6972;51.518;6.918;2023-05-19T13:54:30;20.30;99.90
13802;DHT22;6972;51.518;6.918;2023-05-19T13:56:56;20.30;99.90
13802;DHT22;6972;51.518;6.918;2023-05-19T13:59:24;20.20;99.90
13802;DHT22;6972;51.518;6.918;2023-05-19T14:01:49;20.20;99.90
13802;DHT22;6972;51.518;6.918;2023-05-19T14:04:17;20.30;99.90
13802;DHT22;6972;51.518;6.918;2023-05-19T14:06:43;20.30;99.90
13802;DHT22;6972;51.518;6.918;2023-05-19T14:09:08;20.30;99.90
13802;DHT22;6972;51.518;6.918;2023-05-19T14:11:34;20.30;99.90
13802;DHT22;6972;51.518;6.918;2023-05-19T14:14:00;20.40;99.90
13802;DHT22;6972;51.518;6.918;2023-05-19T14:16:28;20.40;99.90
13802;DHT22;6972;51.518;6.918;2023-05-19T14:18:55;20.30;99.90
13802;DHT22;6972;51.518;6.918;2023-05-19T14:21:21;20.40;99.90
13802;DHT22;6972;51.518;6.918;2023-05-19T14:23:47;20.40;99.90
13802;DHT22;6972;51.518;6.918;2023-05-19T14:26:12;20.40;99.90
13802;DHT22;6972;51.518;6.918;2023-05-19T14:28:38;20.40;99.90
13802;DHT22;6972;51.518;6.918;2023-05-19T14:31:04;20.40;99.90
13802;DHT22;6972;51.518;6.918;2023-05-19T14:33:31;20.50;99.90
13802;DHT22;6972;51.518;6.918;2023-05-19T14:35:56;20.40;99.90
13802;DHT22;6972;51.518;6.918;2023-05-19T14:38:26;20.40;99.90
13802;DHT22;6972;51.518;6.918;2023-05-19T14:40:51;20.10;99.90
13802;DHT22;6972;51.518;6.918;2023-05-19T14:43:17;19.90;99.90
13802;DHT22;6972;51.518;6.918;2023-05-19T14:45:43;20.50;99.90
13802;DHT22;6972;51.518;6.918;2023-05-19T14:48:09;20.40;99.90
13802;DHT22;6972;51.518;6.918;2023-05-19T14:50:37;20.40;99.90
13802;DHT22;6972;51.518;6.918;2023-05-19T14:53:03;20.40;99.90
13802;DHT22;6972;51.518;6.918;2023-05-19T14:55:29;20.40;99.90
13802;DHT22;6972;51.518;6.918;2023-05-19T14:57:54;20.40;99.90
13802;DHT22;6972;51.518;6.918;2023-05-19T15:00:20;20.50;99.90
13802;DHT22;6972;51.518;6.918;2023-05-19T15:02:46;20.50;99.90
13802;DHT22;6972;51.518;6.918;2023-05-19T15:05:12;20.50;99.90
13802;DHT22;6972;51.518;6.918;2023-05-19T15:07:38;20.50;99.90
13802;DHT22;6972;51.518;6.918;2023-05-19T15:10:03;20.50;99.90
13802;DHT22;6972;51.518;6.918;2023-05-19T15:12:29;20.50;99.90
13802;DHT22;6972;51.518;6.918;2023-05-19T15:14:55;20.50;99.90
13802;DHT22;6972;51.518;6.918;2023-05-19T15:17:21;20.50;99.90
13802;DHT22;6972;51.518;6.918;2023-05-19T15:19:46;20.50;99.90
13802;DHT22;6972;51.518;6.918;2023-05-19T15:22:12;20.50;99.90
13802;DHT22;6972;51.518;6.918;2023-05-19T15:24:37;20.50;99.90
13802;DHT22;6972;51.518;6.918;2023-05-19T15:27:03;20.50;99.90
13802;DHT22;6972;51.518;6.918;2023-05-19T15:29:29;20.50;99.90
13802;DHT22;6972;51.518;6.918;2023-05-19T15:31:55;20.50;99.90
13802;DHT22;6972;51.518;6.918;2023-05-19T15:34:21;20.50;99.90
13802;DHT22;6972;51.518;6.918;2023-05-19T15:36:47;20.50;99.90
13802;DHT22;6972;51.518;6.918;2023-05-19T15:39:12;20.50;99.90
13802;DHT22;6972;51.518;6.918;2023-05-19T15:41:38;20.50;99.90
13802;DHT22;6972;51.518;6.918;2023-05-19T15:44:04;20.60;99.90
13802;DHT22;6972;51.518;6.918;2023-05-19T15:46:31;20.60;99.90
13802;DHT22;6972;51.518;6.918;2023-05-19T15:48:57;20.60;99.90
13802;DHT22;6972;51.518;6.918;2023-05-19T15:51:23;20.60;99.90
13802;DHT22;6972;51.518;6.918;2023-05-19T15:53:48;20.70;99.90
13802;DHT22;6972;51.518;6.918;2023-05-19T15:56:14;20.70;99.90
13802;DHT22;6972;51.518;6.918;2023-05-19T15:58:40;20.70;99.90
13802;DHT22;6972;51.518;6.918;2023-05-19T16:01:06;20.70;99.90
13802;DHT22;6972;51.518;6.918;2023-05-19T16:03:32;20.70;99.90
13802;DHT22;6972;51.518;6.918;2023-05-19T16:05:57;20.80;99.90
13802;DHT22;6972;51.518;6.918;2023-05-19T16:08:23;20.70;99.90
13802;DHT22;6972;51.518;6.918;2023-05-19T16:10:49;20.70;99.90
13802;DHT22;6972;51.518;6.918;2023-05-19T16:13:15;20.70;99.90
13802;DHT22;6972;51.518;6.918;2023-05-19T16:15:41;20.70;99.90
13802;DHT22;6972;51.518;6.918;2023-05-19T16:18:06;20.70;99.90